sensor_id;sensor_type;location;lat;lon;timestamp;pressure;altitude;pressure_sealevel;temperature;humidity
37291;BME280;23175;-33.706;151.094;2023-06-05T00:01:17;101418.07;;;14.38;43.37
37291;BME280;23175;-33.706;151.094;2023-06-05T00:03:47;101415.07;;;15.55;42.05
37291;BME280;23175;-33.706;151.094;2023-06-05T00:06:17;101415.71;;;14.17;44.71
37291;BME280;23175;-33.706;151.094;2023-06-05T00:08:47;101409.46;;;15.62;41.18
37291;BME280;23175;-33.706;151.094;2023-06-05T00:11:17;101401.38;;;17.40;39.13
37291;BME280;23175;-33.706;151.094;2023-06-05T00:13:47;101398.29;;;17.32;39.13
37291;BME280;23175;-33.706;151.094;2023-06-05T00:16:17;101395.30;;;16.04;41.02
37291;BME280;23175;-33.706;151.094;2023-06-05T00:18:47;101389.37;;;15.05;42.36
37291;BME280;23175;-33.706;151.094;2023-06-05T00:21:17;101386.06;;;14.36;44.31
37291;BME280;23175;-33.706;151.094;2023-06-05T00:23:47;101391.39;;;11.25;47.98
37291;BME280;23175;-33.706;151.094;2023-06-05T00:26:16;101389.99;;;12.36;46.41
37291;BME280;23175;-33.706;151.094;2023-06-05T00:28:47;101381.53;;;13.09;45.27
37291;BME280;23175;-33.706;151.094;2023-06-05T00:31:17;101381.44;;;14.47;43.96
37291;BME280;23175;-33.706;151.094;2023-06-05T00:33:47;101375.31;;;13.19;46.19
37291;BME280;23175;-33.706;151.094;2023-06-05T00:36:17;101369.23;;;14.67;43.05
37291;BME280;23175;-33.706;151.094;2023-06-05T00:38:47;101366.50;;;15.23;42.60
37291;BME280;23175;-33.706;151.094;2023-06-05T00:41:17;101362.16;;;14.49;42.62
37291;BME280;23175;-33.706;151.094;2023-06-05T00:43:47;101357.23;;;14.03;43.77
37291;BME280;23175;-33.706;151.094;2023-06-05T00:46:17;101351.63;;;14.18;43.02
37291;BME280;23175;-33.706;151.094;2023-06-05T00:48:47;101346.30;;;15.02;42.22
37291;BME280;23175;-33.706;151.094;2023-06-05T00:51:17;101352.43;;;13.99;42.98
37291;BME280;23175;-33.706;151.094;2023-06-05T00:53:48;101363.21;;;10.22;55.60
37291;BME280;23175;-33.706;151.094;2023-06-05T00:56:19;101362.58;;;10.01;57.87
37291;BME280;23175;-33.706;151.094;2023-06-05T00:58:50;101369.66;;;6.98;69.79
37291;BME280;23175;-33.706;151.094;2023-06-05T01:01:22;101364.05;;;12.01;60.56
37291;BME280;23175;-33.706;151.094;2023-06-05T01:03:53;101360.53;;;10.39;64.63
37291;BME280;23175;-33.706;151.094;2023-06-05T01:06:23;101355.78;;;10.73;63.54
37291;BME280;23175;-33.706;151.094;2023-06-05T01:08:53;101351.23;;;8.14;71.63
37291;BME280;23175;-33.706;151.094;2023-06-05T01:11:32;101347.20;;;10.06;65.96
37291;BME280;23175;-33.706;151.094;2023-06-05T01:14:11;101341.14;;;11.14;63.83
37291;BME280;23175;-33.706;151.094;2023-06-05T01:16:47;101338.39;;;10.28;64.15
37291;BME280;23175;-33.706;151.094;2023-06-05T01:19:18;101336.12;;;9.85;62.77
37291;BME280;23175;-33.706;151.094;2023-06-05T01:21:49;101334.03;;;9.99;64.09
37291;BME280;23175;-33.706;151.094;2023-06-05T01:24:19;101326.49;;;11.22;59.07
37291;BME280;23175;-33.706;151.094;2023-06-05T01:27:01;101330.48;;;10.33;62.23
37291;BME280;23175;-33.706;151.094;2023-06-05T01:29:37;101322.55;;;10.98;61.57
37291;BME280;23175;-33.706;151.094;2023-06-05T01:32:15;101316.73;;;10.69;61.99
37291;BME280;23175;-33.706;151.094;2023-06-05T01:34:46;101309.46;;;11.57;60.23
37291;BME280;23175;-33.706;151.094;2023-06-05T01:37:17;101307.51;;;9.78;60.75
37291;BME280;23175;-33.706;151.094;2023-06-05T01:39:48;101302.39;;;10.60;59.61
37291;BME280;23175;-33.706;151.094;2023-06-05T01:42:18;101295.58;;;11.36;58.73
37291;BME280;23175;-33.706;151.094;2023-06-05T01:44:49;101293.69;;;9.60;62.26
37291;BME280;23175;-33.706;151.094;2023-06-05T01:47:19;101281.80;;;14.04;53.07
37291;BME280;23175;-33.706;151.094;2023-06-05T01:49:50;101280.51;;;11.47;56.35
37291;BME280;23175;-33.706;151.094;2023-06-05T01:52:19;101272.57;;;11.70;53.95
37291;BME280;23175;-33.706;151.094;2023-06-05T01:54:49;101267.50;;;13.33;51.51
37291;BME280;23175;-33.706;151.094;2023-06-05T01:57:19;101261.01;;;11.80;53.83
37291;BME280;23175;-33.706;151.094;2023-06-05T01:59:49;101256.38;;;12.39;52.19
37291;BME280;23175;-33.706;151.094;2023-06-05T02:02:19;101250.20;;;15.10;47.82
37291;BME280;23175;-33.706;151.094;2023-06-05T02:04:49;101237.71;;;16.07;46.31
37291;BME280;23175;-33.706;151.094;2023-06-05T02:07:19;101236.84;;;12.89;50.42
37291;BME280;23175;-33.706;151.094;2023-06-05T02:09:49;101233.95;;;9.61;56.22
37291;BME280;23175;-33.706;151.094;2023-06-05T02:12:20;101232.91;;;13.69;49.55
37291;BME280;23175;-33.706;151.094;2023-06-05T02:14:49;101224.82;;;15.72;45.59
37291;BME280;23175;-33.706;151.094;2023-06-05T02:17:19;101224.61;;;16.46;45.15
37291;BME280;23175;-33.706;151.094;2023-06-05T02:19:49;101223.12;;;14.69;46.99
37291;BME280;23175;-33.706;151.094;2023-06-05T02:22:20;101223.69;;;10.55;54.37
37291;BME280;23175;-33.706;151.094;2023-06-05T02:24:49;101216.35;;;16.03;45.69
37291;BME280;23175;-33.706;151.094;2023-06-05T02:27:19;101217.19;;;11.25;52.14
37291;BME280;23175;-33.706;151.094;2023-06-05T02:29:50;101216.49;;;11.91;51.66
37291;BME280;23175;-33.706;151.094;2023-06-05T02:32:20;101214.88;;;10.46;52.81
37291;BME280;23175;-33.706;151.094;2023-06-05T02:34:49;101216.11;;;11.13;54.92
37291;BME280;23175;-33.706;151.094;2023-06-05T02:37:19;101211.48;;;13.46;50.16
37291;BME280;23175;-33.706;151.094;2023-06-05T02:39:49;101208.32;;;10.79;55.78
37291;BME280;23175;-33.706;151.094;2023-06-05T02:42:19;101201.50;;;9.75;57.37
37291;BME280;23175;-33.706;151.094;2023-06-05T02:44:49;101192.84;;;10.23;57.75
37291;BME280;23175;-33.706;151.094;2023-06-05T02:47:19;101181.62;;;12.10;53.24
37291;BME280;23175;-33.706;151.094;2023-06-05T02:49:49;101179.12;;;12.48;51.89
37291;BME280;23175;-33.706;151.094;2023-06-05T02:52:18;101177.58;;;10.52;56.26
37291;BME280;23175;-33.706;151.094;2023-06-05T02:54:48;101168.60;;;12.96;51.14
37291;BME280;23175;-33.706;151.094;2023-06-05T02:57:18;101155.25;;;12.00;54.09
37291;BME280;23175;-33.706;151.094;2023-06-05T02:59:48;101148.78;;;11.67;54.09
37291;BME280;23175;-33.706;151.094;2023-06-05T03:02:18;101145.41;;;13.77;48.58
37291;BME280;23175;-33.706;151.094;2023-06-05T03:04:48;101141.99;;;12.76;50.52
37291;BME280;23175;-33.706;151.094;2023-06-05T03:07:18;101139.19;;;15.03;46.18
37291;BME280;23175;-33.706;151.094;2023-06-05T03:09:48;101134.66;;;15.00;46.53
37291;BME280;23175;-33.706;151.094;2023-06-05T03:12:17;101133.16;;;14.52;46.50
37291;BME280;23175;-33.706;151.094;2023-06-05T03:14:48;101124.22;;;14.49;45.63
37291;BME280;23175;-33.706;151.094;2023-06-05T03:17:18;101124.24;;;12.86;47.33
37291;BME280;23175;-33.706;151.094;2023-06-05T03:19:48;101113.37;;;15.10;44.70
37291;BME280;23175;-33.706;151.094;2023-06-05T03:22:18;101114.97;;;13.85;47.00
37291;BME280;23175;-33.706;151.094;2023-06-05T03:24:48;101114.23;;;15.48;44.70
37291;BME280;23175;-33.706;151.094;2023-06-05T03:27:18;101109.81;;;16.15;42.37
37291;BME280;23175;-33.706;151.094;2023-06-05T03:29:48;101105.22;;;16.41;42.24
37291;BME280;23175;-33.706;151.094;2023-06-05T03:32:17;101107.65;;;12.87;46.39
37291;BME280;23175;-33.706;151.094;2023-06-05T03:34:47;101106.13;;;12.36;47.07
37291;BME280;23175;-33.706;151.094;2023-06-05T03:37:17;101103.69;;;13.34;45.92
37291;BME280;23175;-33.706;151.094;2023-06-05T03:39:47;101102.35;;;14.38;44.92
37291;BME280;23175;-33.706;151.094;2023-06-05T03:42:16;101093.05;;;15.24;42.89
37291;BME280;23175;-33.706;151.094;2023-06-05T03:44:47;101092.56;;;12.95;44.27
37291;BME280;23175;-33.706;151.094;2023-06-05T03:47:18;101087.62;;;14.31;43.71
37291;BME280;23175;-33.706;151.094;2023-06-05T03:49:48;101086.23;;;12.37;46.73
37291;BME280;23175;-33.706;151.094;2023-06-05T03:52:18;101078.73;;;14.00;44.54
37291;BME280;23175;-33.706;151.094;2023-06-05T03:54:48;101077.88;;;12.99;46.58
37291;BME280;23175;-33.706;151.094;2023-06-05T03:57:17;101079.36;;;10.05;52.53
37291;BME280;23175;-33.706;151.094;2023-06-05T03:59:47;101074.78;;;12.19;49.00
37291;BME280;23175;-33.706;151.094;2023-06-05T04:02:18;101071.76;;;11.78;49.64
37291;BME280;23175;-33.706;151.094;2023-06-05T04:04:49;101070.36;;;11.60;50.10
37291;BME280;23175;-33.706;151.094;2023-06-05T04:07:18;101068.51;;;11.71;50.04
37291;BME280;23175;-33.706;151.094;2023-06-05T04:09:48;101060.14;;;11.11;50.24
37291;BME280;23175;-33.706;151.094;2023-06-05T04:12:18;101061.01;;;13.23;47.84
37291;BME280;23175;-33.706;151.094;2023-06-05T04:14:49;101063.71;;;10.94;52.37
37291;BME280;23175;-33.706;151.094;2023-06-05T04:17:19;101066.60;;;10.16;52.34
37291;BME280;23175;-33.706;151.094;2023-06-05T04:19:48;101060.47;;;13.49;47.67
37291;BME280;23175;-33.706;151.094;2023-06-05T04:22:18;101051.13;;;12.05;49.77
37291;BME280;23175;-33.706;151.094;2023-06-05T04:24:48;101047.22;;;15.37;44.47
37291;BME280;23175;-33.706;151.094;2023-06-05T04:27:17;101050.66;;;14.91;44.39
37291;BME280;23175;-33.706;151.094;2023-06-05T04:29:47;101052.36;;;11.80;48.77
37291;BME280;23175;-33.706;151.094;2023-06-05T04:32:17;101053.78;;;13.35;46.85
37291;BME280;23175;-33.706;151.094;2023-06-05T04:34:47;101054.60;;;12.18;50.03
37291;BME280;23175;-33.706;151.094;2023-06-05T04:37:17;101054.07;;;12.05;48.93
37291;BME280;23175;-33.706;151.094;2023-06-05T04:39:47;101050.58;;;14.69;44.93
37291;BME280;23175;-33.706;151.094;2023-06-05T04:42:16;101057.57;;;13.67;45.39
37291;BME280;23175;-33.706;151.094;2023-06-05T04:44:56;101063.67;;;12.92;46.66
37291;BME280;23175;-33.706;151.094;2023-06-05T04:47:26;101063.40;;;14.09;45.84
37291;BME280;23175;-33.706;151.094;2023-06-05T04:49:59;101071.12;;;14.47;45.69
37291;BME280;23175;-33.706;151.094;2023-06-05T04:52:29;101083.43;;;12.74;48.21
37291;BME280;23175;-33.706;151.094;2023-06-05T04:55:00;101073.85;;;14.67;45.94
37291;BME280;23175;-33.706;151.094;2023-06-05T04:57:30;101067.02;;;15.81;44.50
37291;BME280;23175;-33.706;151.094;2023-06-05T05:00:00;101064.58;;;15.62;44.24
37291;BME280;23175;-33.706;151.094;2023-06-05T05:02:30;101065.48;;;15.70;43.91
37291;BME280;23175;-33.706;151.094;2023-06-05T05:05:01;101065.33;;;17.57;41.69
37291;BME280;23175;-33.706;151.094;2023-06-05T05:07:31;101065.97;;;16.35;42.08
37291;BME280;23175;-33.706;151.094;2023-06-05T05:10:01;101068.64;;;16.27;42.33
37291;BME280;23175;-33.706;151.094;2023-06-05T05:12:31;101065.83;;;17.15;40.25
37291;BME280;23175;-33.706;151.094;2023-06-05T05:15:01;101064.98;;;17.54;39.80
37291;BME280;23175;-33.706;151.094;2023-06-05T05:17:31;101071.09;;;14.17;43.22
37291;BME280;23175;-33.706;151.094;2023-06-05T05:20:02;101068.79;;;17.23;40.49
37291;BME280;23175;-33.706;151.094;2023-06-05T05:22:32;101068.91;;;16.00;42.46
37291;BME280;23175;-33.706;151.094;2023-06-05T05:25:02;101070.96;;;15.25;44.21
37291;BME280;23175;-33.706;151.094;2023-06-05T05:27:32;101068.66;;;16.95;42.71
37291;BME280;23175;-33.706;151.094;2023-06-05T05:30:02;101069.19;;;16.80;43.57
37291;BME280;23175;-33.706;151.094;2023-06-05T05:32:32;101065.16;;;16.43;43.71
37291;BME280;23175;-33.706;151.094;2023-06-05T05:35:02;101070.17;;;12.30;49.65
37291;BME280;23175;-33.706;151.094;2023-06-05T05:37:32;101068.44;;;13.37;48.98
37291;BME280;23175;-33.706;151.094;2023-06-05T05:40:02;101073.05;;;14.11;50.18
37291;BME280;23175;-33.706;151.094;2023-06-05T05:42:32;101075.64;;;11.71;54.46
37291;BME280;23175;-33.706;151.094;2023-06-05T05:45:03;101081.31;;;13.46;53.80
37291;BME280;23175;-33.706;151.094;2023-06-05T05:47:33;101076.41;;;13.92;52.83
37291;BME280;23175;-33.706;151.094;2023-06-05T05:50:04;101075.07;;;15.89;49.53
37291;BME280;23175;-33.706;151.094;2023-06-05T05:52:34;101073.24;;;16.33;49.20
37291;BME280;23175;-33.706;151.094;2023-06-05T05:55:04;101076.63;;;15.19;51.30
37291;BME280;23175;-33.706;151.094;2023-06-05T05:57:35;101072.07;;;16.52;49.33
37291;BME280;23175;-33.706;151.094;2023-06-05T06:00:06;101070.02;;;15.98;49.94
37291;BME280;23175;-33.706;151.094;2023-06-05T06:02:36;101068.26;;;15.50;49.76
37291;BME280;23175;-33.706;151.094;2023-06-05T06:05:07;101068.12;;;16.32;48.27
37291;BME280;23175;-33.706;151.094;2023-06-05T06:07:37;101067.87;;;16.31;48.49
37291;BME280;23175;-33.706;151.094;2023-06-05T06:10:08;101067.36;;;16.54;48.17
37291;BME280;23175;-33.706;151.094;2023-06-05T06:12:38;101070.96;;;16.96;47.53
37291;BME280;23175;-33.706;151.094;2023-06-05T06:15:09;101073.91;;;17.19;46.99
37291;BME280;23175;-33.706;151.094;2023-06-05T06:17:39;101072.53;;;17.11;47.07
37291;BME280;23175;-33.706;151.094;2023-06-05T06:20:10;101075.15;;;17.19;46.97
37291;BME280;23175;-33.706;151.094;2023-06-05T06:22:40;101077.76;;;17.21;47.14
37291;BME280;23175;-33.706;151.094;2023-06-05T06:25:11;101077.50;;;17.45;46.55
37291;BME280;23175;-33.706;151.094;2023-06-05T06:27:42;101081.65;;;17.04;46.86
37291;BME280;23175;-33.706;151.094;2023-06-05T06:30:12;101084.39;;;17.34;47.08
37291;BME280;23175;-33.706;151.094;2023-06-05T06:32:42;101088.89;;;17.00;47.80
37291;BME280;23175;-33.706;151.094;2023-06-05T06:35:12;101088.18;;;16.72;47.75
37291;BME280;23175;-33.706;151.094;2023-06-05T06:37:42;101087.95;;;17.13;47.39
37291;BME280;23175;-33.706;151.094;2023-06-05T06:40:13;101088.67;;;16.52;48.50
37291;BME280;23175;-33.706;151.094;2023-06-05T06:42:43;101087.50;;;16.64;48.28
37291;BME280;23175;-33.706;151.094;2023-06-05T06:45:14;101091.94;;;16.58;48.42
37291;BME280;23175;-33.706;151.094;2023-06-05T06:47:44;101098.92;;;16.97;47.55
37291;BME280;23175;-33.706;151.094;2023-06-05T06:50:15;101102.84;;;16.94;47.46
37291;BME280;23175;-33.706;151.094;2023-06-05T06:52:45;101101.73;;;17.37;47.19
37291;BME280;23175;-33.706;151.094;2023-06-05T06:55:15;101102.31;;;17.01;47.27
37291;BME280;23175;-33.706;151.094;2023-06-05T06:57:45;101104.29;;;16.66;47.17
37291;BME280;23175;-33.706;151.094;2023-06-05T07:00:16;101103.88;;;16.89;47.07
37291;BME280;23175;-33.706;151.094;2023-06-05T07:02:45;101103.73;;;16.93;47.20
37291;BME280;23175;-33.706;151.094;2023-06-05T07:05:17;101108.17;;;16.12;48.63
37291;BME280;23175;-33.706;151.094;2023-06-05T07:07:47;101113.20;;;16.62;47.47
37291;BME280;23175;-33.706;151.094;2023-06-05T07:10:17;101120.34;;;15.89;49.18
37291;BME280;23175;-33.706;151.094;2023-06-05T07:12:47;101118.37;;;16.36;48.12
37291;BME280;23175;-33.706;151.094;2023-06-05T07:15:17;101119.51;;;16.79;47.81
37291;BME280;23175;-33.706;151.094;2023-06-05T07:17:47;101124.36;;;16.79;47.30
37291;BME280;23175;-33.706;151.094;2023-06-05T07:20:17;101125.44;;;16.62;47.57
37291;BME280;23175;-33.706;151.094;2023-06-05T07:22:52;101127.26;;;16.73;47.34
37291;BME280;23175;-33.706;151.094;2023-06-05T07:25:22;101126.65;;;16.00;47.60
37291;BME280;23175;-33.706;151.094;2023-06-05T07:27:52;101124.87;;;16.65;47.73
37291;BME280;23175;-33.706;151.094;2023-06-05T07:30:22;101126.60;;;16.69;47.34
37291;BME280;23175;-33.706;151.094;2023-06-05T07:32:52;101125.66;;;16.78;47.70
37291;BME280;23175;-33.706;151.094;2023-06-05T07:35:22;101131.71;;;15.98;47.41
37291;BME280;23175;-33.706;151.094;2023-06-05T07:37:51;101133.19;;;16.21;47.27
37291;BME280;23175;-33.706;151.094;2023-06-05T07:40:22;101136.80;;;15.77;47.29
37291;BME280;23175;-33.706;151.094;2023-06-05T07:42:52;101138.31;;;16.31;47.40
37291;BME280;23175;-33.706;151.094;2023-06-05T07:45:22;101134.84;;;16.30;47.54
37291;BME280;23175;-33.706;151.094;2023-06-05T07:47:52;101131.63;;;15.80;48.18
37291;BME280;23175;-33.706;151.094;2023-06-05T07:50:21;101133.10;;;15.68;47.61
37291;BME280;23175;-33.706;151.094;2023-06-05T07:52:51;101135.81;;;15.91;47.68
37291;BME280;23175;-33.706;151.094;2023-06-05T07:55:21;101136.57;;;15.29;47.61
37291;BME280;23175;-33.706;151.094;2023-06-05T07:57:50;101138.50;;;16.27;47.12
37291;BME280;23175;-33.706;151.094;2023-06-05T08:00:22;101139.25;;;15.76;47.42
37291;BME280;23175;-33.706;151.094;2023-06-05T08:02:52;101142.88;;;16.12;47.27
37291;BME280;23175;-33.706;151.094;2023-06-05T08:05:24;101138.59;;;15.80;47.12
37291;BME280;23175;-33.706;151.094;2023-06-05T08:07:54;101140.57;;;15.17;48.26
37291;BME280;23175;-33.706;151.094;2023-06-05T08:10:24;101143.18;;;15.06;48.45
37291;BME280;23175;-33.706;151.094;2023-06-05T08:12:54;101146.11;;;16.04;47.77
37291;BME280;23175;-33.706;151.094;2023-06-05T08:15:24;101145.14;;;15.23;47.97
37291;BME280;23175;-33.706;151.094;2023-06-05T08:17:55;101139.66;;;15.96;47.85
37291;BME280;23175;-33.706;151.094;2023-06-05T08:20:25;101142.98;;;14.92;49.32
37291;BME280;23175;-33.706;151.094;2023-06-05T08:22:57;101144.73;;;15.84;48.25
37291;BME280;23175;-33.706;151.094;2023-06-05T08:25:27;101146.65;;;14.49;50.10
37291;BME280;23175;-33.706;151.094;2023-06-05T08:27:57;101147.69;;;14.68;51.38
37291;BME280;23175;-33.706;151.094;2023-06-05T08:30:27;101144.17;;;14.83;50.40
37291;BME280;23175;-33.706;151.094;2023-06-05T08:32:57;101139.92;;;15.90;48.46
37291;BME280;23175;-33.706;151.094;2023-06-05T08:35:27;101144.28;;;15.53;48.54
37291;BME280;23175;-33.706;151.094;2023-06-05T08:37:56;101153.19;;;12.51;54.01
37291;BME280;23175;-33.706;151.094;2023-06-05T08:40:29;101150.87;;;15.27;48.66
37291;BME280;23175;-33.706;151.094;2023-06-05T08:43:01;101148.44;;;15.94;48.44
37291;BME280;23175;-33.706;151.094;2023-06-05T08:45:32;101149.61;;;16.48;47.66
37291;BME280;23175;-33.706;151.094;2023-06-05T08:48:02;101151.94;;;16.20;48.04
37291;BME280;23175;-33.706;151.094;2023-06-05T08:50:35;101153.58;;;16.41;47.83
37291;BME280;23175;-33.706;151.094;2023-06-05T08:53:07;101154.36;;;16.02;47.86
37291;BME280;23175;-33.706;151.094;2023-06-05T08:55:37;101155.74;;;15.64;48.04
37291;BME280;23175;-33.706;151.094;2023-06-05T08:58:08;101156.87;;;16.25;48.06
37291;BME280;23175;-33.706;151.094;2023-06-05T09:00:40;101161.06;;;16.22;48.13
37291;BME280;23175;-33.706;151.094;2023-06-05T09:03:13;101162.76;;;15.93;47.95
37291;BME280;23175;-33.706;151.094;2023-06-05T09:05:43;101162.79;;;16.24;47.99
37291;BME280;23175;-33.706;151.094;2023-06-05T09:08:14;101162.21;;;16.12;47.42
37291;BME280;23175;-33.706;151.094;2023-06-05T09:10:46;101163.70;;;15.95;46.50
37291;BME280;23175;-33.706;151.094;2023-06-05T09:13:16;101160.71;;;15.82;46.79
37291;BME280;23175;-33.706;151.094;2023-06-05T09:15:51;101161.02;;;15.46;46.80
37291;BME280;23175;-33.706;151.094;2023-06-05T09:18:21;101161.55;;;15.78;46.12
37291;BME280;23175;-33.706;151.094;2023-06-05T09:20:51;101161.38;;;15.39;46.90
37291;BME280;23175;-33.706;151.094;2023-06-05T09:23:25;101162.42;;;15.34;46.53
37291;BME280;23175;-33.706;151.094;2023-06-05T09:25:58;101161.25;;;15.78;46.50
37291;BME280;23175;-33.706;151.094;2023-06-05T09:28:28;101164.31;;;15.52;46.44
37291;BME280;23175;-33.706;151.094;2023-06-05T09:30:59;101163.29;;;15.79;46.24
37291;BME280;23175;-33.706;151.094;2023-06-05T09:33:30;101161.59;;;15.43;46.07
37291;BME280;23175;-33.706;151.094;2023-06-05T09:36:05;101161.14;;;16.30;45.49
37291;BME280;23175;-33.706;151.094;2023-06-05T09:38:36;101163.07;;;15.52;46.13
37291;BME280;23175;-33.706;151.094;2023-06-05T09:41:08;101161.73;;;15.42;46.15
37291;BME280;23175;-33.706;151.094;2023-06-05T09:43:40;101161.18;;;16.26;45.75
37291;BME280;23175;-33.706;151.094;2023-06-05T09:46:10;101158.67;;;15.68;46.33
37291;BME280;23175;-33.706;151.094;2023-06-05T09:48:42;101160.06;;;15.88;45.92
37291;BME280;23175;-33.706;151.094;2023-06-05T09:51:16;101163.39;;;15.88;46.53
37291;BME280;23175;-33.706;151.094;2023-06-05T09:53:48;101163.25;;;15.53;45.81
37291;BME280;23175;-33.706;151.094;2023-06-05T09:56:20;101163.29;;;15.57;45.94
37291;BME280;23175;-33.706;151.094;2023-06-05T09:58:52;101162.18;;;16.22;46.10
37291;BME280;23175;-33.706;151.094;2023-06-05T10:01:24;101159.76;;;15.52;46.24
37291;BME280;23175;-33.706;151.094;2023-06-05T10:04:02;101160.44;;;15.99;45.45
37291;BME280;23175;-33.706;151.094;2023-06-05T10:06:36;101164.52;;;15.94;45.80
37291;BME280;23175;-33.706;151.094;2023-06-05T10:09:09;101166.58;;;15.02;48.23
37291;BME280;23175;-33.706;151.094;2023-06-05T10:11:41;101160.83;;;15.84;46.13
37291;BME280;23175;-33.706;151.094;2023-06-05T10:14:11;101162.90;;;16.01;46.00
37291;BME280;23175;-33.706;151.094;2023-06-05T10:16:43;101157.54;;;15.43;46.16
37291;BME280;23175;-33.706;151.094;2023-06-05T10:19:15;101160.54;;;15.80;46.23
37291;BME280;23175;-33.706;151.094;2023-06-05T10:21:48;101158.08;;;16.28;46.05
37291;BME280;23175;-33.706;151.094;2023-06-05T10:24:22;101152.62;;;16.06;46.07
37291;BME280;23175;-33.706;151.094;2023-06-05T10:28:33;101150.25;;;16.12;46.33
37291;BME280;23175;-33.706;151.094;2023-06-05T10:31:20;101155.01;;;16.12;45.75
37291;BME280;23175;-33.706;151.094;2023-06-05T10:34:02;101156.06;;;16.07;46.42
37291;BME280;23175;-33.706;151.094;2023-06-05T10:36:46;101151.75;;;16.64;45.46
37291;BME280;23175;-33.706;151.094;2023-06-05T10:39:19;101151.95;;;15.80;46.19
37291;BME280;23175;-33.706;151.094;2023-06-05T10:41:52;101152.68;;;16.03;45.47
37291;BME280;23175;-33.706;151.094;2023-06-05T10:44:39;101148.17;;;15.28;45.54
37291;BME280;23175;-33.706;151.094;2023-06-05T10:48:16;101150.01;;;16.11;46.14
37291;BME280;23175;-33.706;151.094;2023-06-05T10:50:46;101151.61;;;16.11;46.28
37291;BME280;23175;-33.706;151.094;2023-06-05T10:53:45;101151.92;;;15.57;46.04
37291;BME280;23175;-33.706;151.094;2023-06-05T10:56:55;101152.10;;;16.36;45.69
37291;BME280;23175;-33.706;151.094;2023-06-05T10:59:29;101149.31;;;15.95;46.79
37291;BME280;23175;-33.706;151.094;2023-06-05T11:02:26;101149.05;;;16.23;45.66
37291;BME280;23175;-33.706;151.094;2023-06-05T11:05:10;101151.09;;;16.19;45.52
37291;BME280;23175;-33.706;151.094;2023-06-05T11:07:40;101150.79;;;15.59;45.76
37291;BME280;23175;-33.706;151.094;2023-06-05T11:10:15;101148.71;;;15.84;46.06
37291;BME280;23175;-33.706;151.094;2023-06-05T11:13:02;101151.39;;;15.79;46.70
37291;BME280;23175;-33.706;151.094;2023-06-05T11:15:41;101152.38;;;16.22;46.15
37291;BME280;23175;-33.706;151.094;2023-06-05T11:18:44;101151.53;;;16.34;45.71
37291;BME280;23175;-33.706;151.094;2023-06-05T11:21:14;101153.43;;;13.19;50.47
37291;BME280;23175;-33.706;151.094;2023-06-05T11:24:21;101153.66;;;12.07;53.88
37291;BME280;23175;-33.706;151.094;2023-06-05T11:26:51;101151.43;;;15.08;47.67
37291;BME280;23175;-33.706;151.094;2023-06-05T11:29:21;101149.31;;;15.37;46.78
37291;BME280;23175;-33.706;151.094;2023-06-05T11:31:51;101151.49;;;16.10;46.90
37291;BME280;23175;-33.706;151.094;2023-06-05T11:34:22;101150.88;;;15.27;46.75
37291;BME280;23175;-33.706;151.094;2023-06-05T11:36:52;101148.27;;;15.95;46.01
37291;BME280;23175;-33.706;151.094;2023-06-05T11:39:23;101149.28;;;15.53;46.43
37291;BME280;23175;-33.706;151.094;2023-06-05T11:41:53;101146.31;;;16.06;45.91
37291;BME280;23175;-33.706;151.094;2023-06-05T11:44:38;101146.39;;;15.42;47.02
37291;BME280;23175;-33.706;151.094;2023-06-05T11:47:08;101147.71;;;16.49;46.49
37291;BME280;23175;-33.706;151.094;2023-06-05T11:49:51;101146.14;;;16.56;45.78
37291;BME280;23175;-33.706;151.094;2023-06-05T11:52:22;101143.04;;;15.54;45.85
37291;BME280;23175;-33.706;151.094;2023-06-05T11:54:52;101143.77;;;16.40;45.72
37291;BME280;23175;-33.706;151.094;2023-06-05T11:57:21;101145.75;;;15.29;45.84
37291;BME280;23175;-33.706;151.094;2023-06-05T11:59:51;101151.22;;;16.55;45.89
37291;BME280;23175;-33.706;151.094;2023-06-05T12:02:23;101154.17;;;14.79;47.78
37291;BME280;23175;-33.706;151.094;2023-06-05T12:04:53;101153.96;;;15.43;48.89
37291;BME280;23175;-33.706;151.094;2023-06-05T12:07:33;101155.84;;;13.07;52.67
37291;BME280;23175;-33.706;151.094;2023-06-05T12:10:04;101150.34;;;15.59;48.12
37291;BME280;23175;-33.706;151.094;2023-06-05T12:12:35;101146.76;;;16.12;47.67
37291;BME280;23175;-33.706;151.094;2023-06-05T12:15:20;101145.23;;;16.05;47.04
37291;BME280;23175;-33.706;151.094;2023-06-05T12:17:51;101147.30;;;16.43;47.13
37291;BME280;23175;-33.706;151.094;2023-06-05T12:20:22;101148.68;;;15.51;47.64
37291;BME280;23175;-33.706;151.094;2023-06-05T12:22:52;101145.64;;;15.91;47.17
37291;BME280;23175;-33.706;151.094;2023-06-05T12:25:23;101145.50;;;15.53;47.39
37291;BME280;23175;-33.706;151.094;2023-06-05T12:27:53;101145.23;;;15.77;47.53
37291;BME280;23175;-33.706;151.094;2023-06-05T12:30:23;101146.07;;;15.57;47.29
37291;BME280;23175;-33.706;151.094;2023-06-05T12:33:05;101144.14;;;15.83;47.35
37291;BME280;23175;-33.706;151.094;2023-06-05T12:35:34;101141.40;;;16.45;46.99
37291;BME280;23175;-33.706;151.094;2023-06-05T12:38:05;101145.88;;;15.91;47.41
37291;BME280;23175;-33.706;151.094;2023-06-05T12:40:35;101146.55;;;16.20;47.55
37291;BME280;23175;-33.706;151.094;2023-06-05T12:43:15;101148.57;;;16.00;47.40
37291;BME280;23175;-33.706;151.094;2023-06-05T12:45:46;101151.64;;;15.96;47.46